<?xml version="1.0" encoding="UTF-8" standalone="no" ?>
<gpx xmlns="http://www.topografix.com/GPX/1/1" xmlns:xsi="http://www.w3.org/2001/XMLSchema-instance" xsi:schemaLocation="http://www.topografix.com/GPX/1/1 http://www.topografix.com/GPX/1/1/gpx.xsd" version="1.1" creator="VisuGPX - https://www.visugpx.com">
  <metadata>
    <name>GR20-Etape3-Castel De Vergio/Refuge de Maganu</name>
  </metadata>
  <wpt lat="42.28657" lon="8.89242">
    <ele>1406.9</ele>
    <name><![CDATA[Castel Vergio]]></name>
    <type><![CDATA[CAMPSITE]]></type>
  </wpt>
  <wpt lat="42.22039" lon="8.98084">
    <ele>1595.8</ele>
    <name><![CDATA[Refuge Manganu]]></name>
    <type><![CDATA[CAMPSITE]]></type>
  </wpt>
  <trk>
    <name><![CDATA[GR20-Etape3-Castel De Vergio/Refuge de Maganu]]></name>
    <trkseg>
      <trkpt lat="42.28655" lon="8.89283">
        <ele>1405.8</ele>
        <time>2022-06-09T13:42:18.000Z</time>
      </trkpt>
      <trkpt lat="42.28659" lon="8.89242">
        <ele>1406.5</ele>
        <time>2022-06-09T13:42:18.041Z</time>
      </trkpt>
      <trkpt lat="42.28657" lon="8.89242">
        <ele>1406.9</ele>
        <time>2022-06-09T13:42:18.085Z</time>
      </trkpt>
      <trkpt lat="42.28657" lon="8.89242">
        <ele>1406.9</ele>
        <time>2022-06-09T13:42:18.129Z</time>
      </trkpt>
      <trkpt lat="42.28653" lon="8.89283">
        <ele>1406</ele>
        <time>2022-06-09T13:42:18.214Z</time>
      </trkpt>
      <trkpt lat="42.28651" lon="8.89312">
        <ele>1404</ele>
        <time>2022-06-09T13:42:18.328Z</time>
      </trkpt>
      <trkpt lat="42.2864" lon="8.89468">
        <ele>1399</ele>
        <time>2022-06-09T13:42:18.597Z</time>
      </trkpt>
      <trkpt lat="42.28606" lon="8.89468">
        <ele>1389.6</ele>
        <time>2022-06-09T13:42:18.912Z</time>
      </trkpt>
      <trkpt lat="42.28587" lon="8.89452">
        <ele>1385.5</ele>
        <time>2022-06-09T13:42:19.256Z</time>
      </trkpt>
      <trkpt lat="42.28566" lon="8.89424">
        <ele>1382.5</ele>
        <time>2022-06-09T13:42:19.639Z</time>
      </trkpt>
      <trkpt lat="42.28554" lon="8.89418">
        <ele>1379.4</ele>
        <time>2022-06-09T13:42:20.039Z</time>
      </trkpt>
      <trkpt lat="42.28535" lon="8.89422">
        <ele>1373.9</ele>
        <time>2022-06-09T13:42:20.465Z</time>
      </trkpt>
      <trkpt lat="42.28504" lon="8.89429">
        <ele>1365.1</ele>
        <time>2022-06-09T13:42:20.933Z</time>
      </trkpt>
      <trkpt lat="42.28425" lon="8.89481">
        <ele>1343</ele>
        <time>2022-06-09T13:42:21.517Z</time>
      </trkpt>
      <trkpt lat="42.28382" lon="8.89472">
        <ele>1336.6</ele>
        <time>2022-06-09T13:42:22.159Z</time>
      </trkpt>
      <trkpt lat="42.28366" lon="8.89487">
        <ele>1332.4</ele>
        <time>2022-06-09T13:42:22.827Z</time>
      </trkpt>
      <trkpt lat="42.28351" lon="8.89501">
        <ele>1328.4</ele>
        <time>2022-06-09T13:42:23.520Z</time>
      </trkpt>
      <trkpt lat="42.28343" lon="8.89522">
        <ele>1324</ele>
        <time>2022-06-09T13:42:24.237Z</time>
      </trkpt>
      <trkpt lat="42.28336" lon="8.89521">
        <ele>1324.2</ele>
        <time>2022-06-09T13:42:24.962Z</time>
      </trkpt>
      <trkpt lat="42.28313" lon="8.89487">
        <ele>1325.1</ele>
        <time>2022-06-09T13:42:25.734Z</time>
      </trkpt>
      <trkpt lat="42.28292" lon="8.89398">
        <ele>1325.6</ele>
        <time>2022-06-09T13:42:26.598Z</time>
      </trkpt>
      <trkpt lat="42.28303" lon="8.89272">
        <ele>1326.8</ele>
        <time>2022-06-09T13:42:27.587Z</time>
      </trkpt>
      <trkpt lat="42.28294" lon="8.89249">
        <ele>1327.6</ele>
        <time>2022-06-09T13:42:28.602Z</time>
      </trkpt>
      <trkpt lat="42.28269" lon="8.89222">
        <ele>1325.4</ele>
        <time>2022-06-09T13:42:29.660Z</time>
      </trkpt>
      <trkpt lat="42.28269" lon="8.89222">
        <ele>1325.4</ele>
        <time>2022-06-09T13:42:30.718Z</time>
      </trkpt>
      <trkpt lat="42.28257" lon="8.89186">
        <ele>1331.6</ele>
        <time>2022-06-09T13:42:31.816Z</time>
      </trkpt>
      <trkpt lat="42.2823" lon="8.89198">
        <ele>1326</ele>
        <time>2022-06-09T13:42:32.952Z</time>
      </trkpt>
      <trkpt lat="42.28207" lon="8.89204">
        <ele>1325.2</ele>
        <time>2022-06-09T13:42:34.118Z</time>
      </trkpt>
      <trkpt lat="42.28195" lon="8.89203">
        <ele>1326.3</ele>
        <time>2022-06-09T13:42:35.301Z</time>
      </trkpt>
      <trkpt lat="42.28187" lon="8.89183">
        <ele>1328.9</ele>
        <time>2022-06-09T13:42:36.506Z</time>
      </trkpt>
      <trkpt lat="42.28166" lon="8.89144">
        <ele>1326.9</ele>
        <time>2022-06-09T13:42:37.760Z</time>
      </trkpt>
      <trkpt lat="42.2815" lon="8.89098">
        <ele>1329.8</ele>
        <time>2022-06-09T13:42:39.064Z</time>
      </trkpt>
      <trkpt lat="42.28077" lon="8.89079">
        <ele>1327.5</ele>
        <time>2022-06-09T13:42:40.467Z</time>
      </trkpt>
      <trkpt lat="42.28025" lon="8.89036">
        <ele>1330</ele>
        <time>2022-06-09T13:42:41.951Z</time>
      </trkpt>
      <trkpt lat="42.28025" lon="8.89036">
        <ele>1330</ele>
        <time>2022-06-09T13:42:43.435Z</time>
      </trkpt>
      <trkpt lat="42.28025" lon="8.89036">
        <ele>1330</ele>
        <time>2022-06-09T13:42:44.919Z</time>
      </trkpt>
      <trkpt lat="42.27985" lon="8.89002">
        <ele>1328.7</ele>
        <time>2022-06-09T13:42:46.466Z</time>
      </trkpt>
      <trkpt lat="42.27966" lon="8.88957">
        <ele>1332.8</ele>
        <time>2022-06-09T13:42:48.064Z</time>
      </trkpt>
      <trkpt lat="42.27951" lon="8.8895">
        <ele>1330.7</ele>
        <time>2022-06-09T13:42:49.683Z</time>
      </trkpt>
      <trkpt lat="42.27939" lon="8.88931">
        <ele>1333</ele>
        <time>2022-06-09T13:42:51.326Z</time>
      </trkpt>
      <trkpt lat="42.27925" lon="8.88922">
        <ele>1334.9</ele>
        <time>2022-06-09T13:42:52.990Z</time>
      </trkpt>
      <trkpt lat="42.27913" lon="8.88921">
        <ele>1335.2</ele>
        <time>2022-06-09T13:42:54.670Z</time>
      </trkpt>
      <trkpt lat="42.27891" lon="8.88936">
        <ele>1332.7</ele>
        <time>2022-06-09T13:42:56.384Z</time>
      </trkpt>
      <trkpt lat="42.27871" lon="8.88942">
        <ele>1332.8</ele>
        <time>2022-06-09T13:42:58.125Z</time>
      </trkpt>
      <trkpt lat="42.27847" lon="8.88954">
        <ele>1331.2</ele>
        <time>2022-06-09T13:42:59.900Z</time>
      </trkpt>
      <trkpt lat="42.27829" lon="8.88946">
        <ele>1335.3</ele>
        <time>2022-06-09T13:43:01.700Z</time>
      </trkpt>
      <trkpt lat="42.27815" lon="8.88967">
        <ele>1331.4</ele>
        <time>2022-06-09T13:43:03.528Z</time>
      </trkpt>
      <trkpt lat="42.27779" lon="8.88956">
        <ele>1336.3</ele>
        <time>2022-06-09T13:43:05.404Z</time>
      </trkpt>
      <trkpt lat="42.27772" lon="8.88958">
        <ele>1337.5</ele>
        <time>2022-06-09T13:43:07.290Z</time>
      </trkpt>
      <trkpt lat="42.27763" lon="8.88969">
        <ele>1337.2</ele>
        <time>2022-06-09T13:43:09.192Z</time>
      </trkpt>
      <trkpt lat="42.27745" lon="8.89021">
        <ele>1332</ele>
        <time>2022-06-09T13:43:11.152Z</time>
      </trkpt>
      <trkpt lat="42.27729" lon="8.89035">
        <ele>1330.9</ele>
        <time>2022-06-09T13:43:13.137Z</time>
      </trkpt>
      <trkpt lat="42.27706" lon="8.89036">
        <ele>1330.5</ele>
        <time>2022-06-09T13:43:15.152Z</time>
      </trkpt>
      <trkpt lat="42.27682" lon="8.8903">
        <ele>1331.4</ele>
        <time>2022-06-09T13:43:17.201Z</time>
      </trkpt>
      <trkpt lat="42.27646" lon="8.89035">
        <ele>1330.8</ele>
        <time>2022-06-09T13:43:19.297Z</time>
      </trkpt>
      <trkpt lat="42.27626" lon="8.89028">
        <ele>1334.9</ele>
        <time>2022-06-09T13:43:21.421Z</time>
      </trkpt>
      <trkpt lat="42.27614" lon="8.89028">
        <ele>1335.8</ele>
        <time>2022-06-09T13:43:23.561Z</time>
      </trkpt>
      <trkpt lat="42.27603" lon="8.89036">
        <ele>1334.4</ele>
        <time>2022-06-09T13:43:25.718Z</time>
      </trkpt>
      <trkpt lat="42.27586" lon="8.89063">
        <ele>1329.2</ele>
        <time>2022-06-09T13:43:27.910Z</time>
      </trkpt>
      <trkpt lat="42.27586" lon="8.89063">
        <ele>1329.2</ele>
        <time>2022-06-09T13:43:30.102Z</time>
      </trkpt>
      <trkpt lat="42.27547" lon="8.89076">
        <ele>1336.7</ele>
        <time>2022-06-09T13:43:32.348Z</time>
      </trkpt>
      <trkpt lat="42.27534" lon="8.89087">
        <ele>1337.8</ele>
        <time>2022-06-09T13:43:34.614Z</time>
      </trkpt>
      <trkpt lat="42.27527" lon="8.89102">
        <ele>1338.2</ele>
        <time>2022-06-09T13:43:36.897Z</time>
      </trkpt>
      <trkpt lat="42.27523" lon="8.89121">
        <ele>1339.5</ele>
        <time>2022-06-09T13:43:39.200Z</time>
      </trkpt>
      <trkpt lat="42.27527" lon="8.89152">
        <ele>1337.8</ele>
        <time>2022-06-09T13:43:41.535Z</time>
      </trkpt>
      <trkpt lat="42.27526" lon="8.89189">
        <ele>1336.9</ele>
        <time>2022-06-09T13:43:43.906Z</time>
      </trkpt>
      <trkpt lat="42.2753" lon="8.89236">
        <ele>1336.4</ele>
        <time>2022-06-09T13:43:46.324Z</time>
      </trkpt>
      <trkpt lat="42.2753" lon="8.89236">
        <ele>1336.4</ele>
        <time>2022-06-09T13:43:48.742Z</time>
      </trkpt>
      <trkpt lat="42.27535" lon="8.89268">
        <ele>1332</ele>
        <time>2022-06-09T13:43:51.192Z</time>
      </trkpt>
      <trkpt lat="42.27521" lon="8.89322">
        <ele>1329.9</ele>
        <time>2022-06-09T13:43:53.699Z</time>
      </trkpt>
      <trkpt lat="42.27497" lon="8.8934">
        <ele>1334.2</ele>
        <time>2022-06-09T13:43:56.242Z</time>
      </trkpt>
      <trkpt lat="42.27468" lon="8.8935">
        <ele>1335.1</ele>
        <time>2022-06-09T13:43:58.825Z</time>
      </trkpt>
      <trkpt lat="42.27421" lon="8.89354">
        <ele>1336.3</ele>
        <time>2022-06-09T13:44:01.471Z</time>
      </trkpt>
      <trkpt lat="42.27387" lon="8.8938">
        <ele>1334.6</ele>
        <time>2022-06-09T13:44:04.169Z</time>
      </trkpt>
      <trkpt lat="42.27356" lon="8.89383">
        <ele>1337.1</ele>
        <time>2022-06-09T13:44:06.909Z</time>
      </trkpt>
      <trkpt lat="42.27332" lon="8.8939">
        <ele>1337.9</ele>
        <time>2022-06-09T13:44:09.681Z</time>
      </trkpt>
      <trkpt lat="42.27297" lon="8.89428">
        <ele>1334</ele>
        <time>2022-06-09T13:44:12.513Z</time>
      </trkpt>
      <trkpt lat="42.27257" lon="8.89436">
        <ele>1339.2</ele>
        <time>2022-06-09T13:44:15.399Z</time>
      </trkpt>
      <trkpt lat="42.27256" lon="8.89455">
        <ele>1335.4</ele>
        <time>2022-06-09T13:44:18.304Z</time>
      </trkpt>
      <trkpt lat="42.27249" lon="8.89461">
        <ele>1336</ele>
        <time>2022-06-09T13:44:21.219Z</time>
      </trkpt>
      <trkpt lat="42.27243" lon="8.89462">
        <ele>1336.1</ele>
        <time>2022-06-09T13:44:24.143Z</time>
      </trkpt>
      <trkpt lat="42.27237" lon="8.89468">
        <ele>1335.4</ele>
        <time>2022-06-09T13:44:27.077Z</time>
      </trkpt>
      <trkpt lat="42.2722" lon="8.89468">
        <ele>1335.8</ele>
        <time>2022-06-09T13:44:30.033Z</time>
      </trkpt>
      <trkpt lat="42.272" lon="8.89455">
        <ele>1336.2</ele>
        <time>2022-06-09T13:44:33.019Z</time>
      </trkpt>
      <trkpt lat="42.27127" lon="8.89307">
        <ele>1336.8</ele>
        <time>2022-06-09T13:44:36.181Z</time>
      </trkpt>
      <trkpt lat="42.27112" lon="8.89269">
        <ele>1333.8</ele>
        <time>2022-06-09T13:44:39.385Z</time>
      </trkpt>
      <trkpt lat="42.27099" lon="8.89208">
        <ele>1338.6</ele>
        <time>2022-06-09T13:44:42.652Z</time>
      </trkpt>
      <trkpt lat="42.27069" lon="8.89131">
        <ele>1336.7</ele>
        <time>2022-06-09T13:44:46.005Z</time>
      </trkpt>
      <trkpt lat="42.2707" lon="8.89095">
        <ele>1346.2</ele>
        <time>2022-06-09T13:44:49.393Z</time>
      </trkpt>
      <trkpt lat="42.27067" lon="8.89076">
        <ele>1349.4</ele>
        <time>2022-06-09T13:44:52.801Z</time>
      </trkpt>
      <trkpt lat="42.27056" lon="8.89076">
        <ele>1343.2</ele>
        <time>2022-06-09T13:44:56.223Z</time>
      </trkpt>
      <trkpt lat="42.27012" lon="8.89094">
        <ele>1345.3</ele>
        <time>2022-06-09T13:44:59.706Z</time>
      </trkpt>
      <trkpt lat="42.2699" lon="8.89114">
        <ele>1346.5</ele>
        <time>2022-06-09T13:45:03.225Z</time>
      </trkpt>
      <trkpt lat="42.26968" lon="8.89149">
        <ele>1347.6</ele>
        <time>2022-06-09T13:45:06.789Z</time>
      </trkpt>
      <trkpt lat="42.26959" lon="8.89159">
        <ele>1348.3</ele>
        <time>2022-06-09T13:45:10.369Z</time>
      </trkpt>
      <trkpt lat="42.26952" lon="8.89164">
        <ele>1349</ele>
        <time>2022-06-09T13:45:13.959Z</time>
      </trkpt>
      <trkpt lat="42.26947" lon="8.89176">
        <ele>1348.7</ele>
        <time>2022-06-09T13:45:17.563Z</time>
      </trkpt>
      <trkpt lat="42.26935" lon="8.8922">
        <ele>1350.9</ele>
        <time>2022-06-09T13:45:21.213Z</time>
      </trkpt>
      <trkpt lat="42.26931" lon="8.89247">
        <ele>1351.6</ele>
        <time>2022-06-09T13:45:24.890Z</time>
      </trkpt>
      <trkpt lat="42.26923" lon="8.89281">
        <ele>1351.5</ele>
        <time>2022-06-09T13:45:28.603Z</time>
      </trkpt>
      <trkpt lat="42.26912" lon="8.89301">
        <ele>1352.8</ele>
        <time>2022-06-09T13:45:32.341Z</time>
      </trkpt>
      <trkpt lat="42.2691" lon="8.89316">
        <ele>1350.7</ele>
        <time>2022-06-09T13:45:36.094Z</time>
      </trkpt>
      <trkpt lat="42.26904" lon="8.89328">
        <ele>1351.4</ele>
        <time>2022-06-09T13:45:39.861Z</time>
      </trkpt>
      <trkpt lat="42.26894" lon="8.89337">
        <ele>1354.7</ele>
        <time>2022-06-09T13:45:43.644Z</time>
      </trkpt>
      <trkpt lat="42.26889" lon="8.89344">
        <ele>1356</ele>
        <time>2022-06-09T13:45:47.437Z</time>
      </trkpt>
      <trkpt lat="42.26885" lon="8.89357">
        <ele>1354.5</ele>
        <time>2022-06-09T13:45:51.244Z</time>
      </trkpt>
      <trkpt lat="42.2688" lon="8.89362">
        <ele>1354.4</ele>
        <time>2022-06-09T13:45:55.058Z</time>
      </trkpt>
      <trkpt lat="42.26866" lon="8.89365">
        <ele>1356</ele>
        <time>2022-06-09T13:45:58.891Z</time>
      </trkpt>
      <trkpt lat="42.26846" lon="8.8936">
        <ele>1356</ele>
        <time>2022-06-09T13:46:02.751Z</time>
      </trkpt>
      <trkpt lat="42.268" lon="8.89342">
        <ele>1357.1</ele>
        <time>2022-06-09T13:46:06.676Z</time>
      </trkpt>
      <trkpt lat="42.26786" lon="8.89338">
        <ele>1357.1</ele>
        <time>2022-06-09T13:46:10.620Z</time>
      </trkpt>
      <trkpt lat="42.26772" lon="8.89339">
        <ele>1354.6</ele>
        <time>2022-06-09T13:46:14.582Z</time>
      </trkpt>
      <trkpt lat="42.26761" lon="8.89329">
        <ele>1355.8</ele>
        <time>2022-06-09T13:46:18.561Z</time>
      </trkpt>
      <trkpt lat="42.26753" lon="8.89316">
        <ele>1358.2</ele>
        <time>2022-06-09T13:46:22.558Z</time>
      </trkpt>
      <trkpt lat="42.26741" lon="8.89322">
        <ele>1359.7</ele>
        <time>2022-06-09T13:46:26.571Z</time>
      </trkpt>
      <trkpt lat="42.26734" lon="8.89339">
        <ele>1357.1</ele>
        <time>2022-06-09T13:46:30.603Z</time>
      </trkpt>
      <trkpt lat="42.26725" lon="8.89349">
        <ele>1358.9</ele>
        <time>2022-06-09T13:46:34.651Z</time>
      </trkpt>
      <trkpt lat="42.26718" lon="8.89366">
        <ele>1356.7</ele>
        <time>2022-06-09T13:46:38.718Z</time>
      </trkpt>
      <trkpt lat="42.26714" lon="8.89373">
        <ele>1355.5</ele>
        <time>2022-06-09T13:46:42.795Z</time>
      </trkpt>
      <trkpt lat="42.26709" lon="8.89378">
        <ele>1355.1</ele>
        <time>2022-06-09T13:46:46.880Z</time>
      </trkpt>
      <trkpt lat="42.26702" lon="8.89377">
        <ele>1356.6</ele>
        <time>2022-06-09T13:46:50.974Z</time>
      </trkpt>
      <trkpt lat="42.26693" lon="8.89372">
        <ele>1359.1</ele>
        <time>2022-06-09T13:46:55.081Z</time>
      </trkpt>
      <trkpt lat="42.26668" lon="8.89351">
        <ele>1361.4</ele>
        <time>2022-06-09T13:46:59.227Z</time>
      </trkpt>
      <trkpt lat="42.26655" lon="8.89353">
        <ele>1362.6</ele>
        <time>2022-06-09T13:47:03.391Z</time>
      </trkpt>
      <trkpt lat="42.26652" lon="8.89358">
        <ele>1361.3</ele>
        <time>2022-06-09T13:47:07.561Z</time>
      </trkpt>
      <trkpt lat="42.26639" lon="8.89365">
        <ele>1361.8</ele>
        <time>2022-06-09T13:47:11.750Z</time>
      </trkpt>
      <trkpt lat="42.26628" lon="8.89378">
        <ele>1360.2</ele>
        <time>2022-06-09T13:47:15.958Z</time>
      </trkpt>
      <trkpt lat="42.26624" lon="8.8938">
        <ele>1360.6</ele>
        <time>2022-06-09T13:47:20.172Z</time>
      </trkpt>
      <trkpt lat="42.26619" lon="8.89387">
        <ele>1359.6</ele>
        <time>2022-06-09T13:47:24.396Z</time>
      </trkpt>
      <trkpt lat="42.26595" lon="8.89389">
        <ele>1359.1</ele>
        <time>2022-06-09T13:47:28.652Z</time>
      </trkpt>
      <trkpt lat="42.26576" lon="8.89377">
        <ele>1362.7</ele>
        <time>2022-06-09T13:47:32.937Z</time>
      </trkpt>
      <trkpt lat="42.26526" lon="8.8938">
        <ele>1364.2</ele>
        <time>2022-06-09T13:47:37.287Z</time>
      </trkpt>
      <trkpt lat="42.26512" lon="8.89388">
        <ele>1364.1</ele>
        <time>2022-06-09T13:47:41.658Z</time>
      </trkpt>
      <trkpt lat="42.26509" lon="8.89402">
        <ele>1364.1</ele>
        <time>2022-06-09T13:47:46.043Z</time>
      </trkpt>
      <trkpt lat="42.26513" lon="8.89439">
        <ele>1361.2</ele>
        <time>2022-06-09T13:47:50.465Z</time>
      </trkpt>
      <trkpt lat="42.26519" lon="8.89462">
        <ele>1360.8</ele>
        <time>2022-06-09T13:47:54.911Z</time>
      </trkpt>
      <trkpt lat="42.26522" lon="8.89557">
        <ele>1362.1</ele>
        <time>2022-06-09T13:47:59.451Z</time>
      </trkpt>
      <trkpt lat="42.26519" lon="8.89578">
        <ele>1363.1</ele>
        <time>2022-06-09T13:48:04.013Z</time>
      </trkpt>
      <trkpt lat="42.26511" lon="8.89576">
        <ele>1366.6</ele>
        <time>2022-06-09T13:48:08.585Z</time>
      </trkpt>
      <trkpt lat="42.26507" lon="8.89579">
        <ele>1368.3</ele>
        <time>2022-06-09T13:48:13.163Z</time>
      </trkpt>
      <trkpt lat="42.26506" lon="8.89571">
        <ele>1369.5</ele>
        <time>2022-06-09T13:48:17.750Z</time>
      </trkpt>
      <trkpt lat="42.26504" lon="8.89566">
        <ele>1371</ele>
        <time>2022-06-09T13:48:22.342Z</time>
      </trkpt>
      <trkpt lat="42.26502" lon="8.89564">
        <ele>1372.3</ele>
        <time>2022-06-09T13:48:26.938Z</time>
      </trkpt>
      <trkpt lat="42.26497" lon="8.89565">
        <ele>1373.7</ele>
        <time>2022-06-09T13:48:31.540Z</time>
      </trkpt>
      <trkpt lat="42.26496" lon="8.89558">
        <ele>1375</ele>
        <time>2022-06-09T13:48:36.149Z</time>
      </trkpt>
      <trkpt lat="42.26491" lon="8.89552">
        <ele>1377.6</ele>
        <time>2022-06-09T13:48:40.767Z</time>
      </trkpt>
      <trkpt lat="42.26485" lon="8.89552">
        <ele>1379.6</ele>
        <time>2022-06-09T13:48:45.392Z</time>
      </trkpt>
      <trkpt lat="42.26467" lon="8.8952">
        <ele>1390.1</ele>
        <time>2022-06-09T13:48:50.057Z</time>
      </trkpt>
      <trkpt lat="42.26461" lon="8.89514">
        <ele>1392.9</ele>
        <time>2022-06-09T13:48:54.733Z</time>
      </trkpt>
      <trkpt lat="42.26452" lon="8.89515">
        <ele>1396.6</ele>
        <time>2022-06-09T13:48:59.420Z</time>
      </trkpt>
      <trkpt lat="42.26442" lon="8.89493">
        <ele>1401.9</ele>
        <time>2022-06-09T13:49:04.133Z</time>
      </trkpt>
      <trkpt lat="42.26434" lon="8.89492">
        <ele>1405.8</ele>
        <time>2022-06-09T13:49:08.856Z</time>
      </trkpt>
      <trkpt lat="42.26401" lon="8.89476">
        <ele>1422.4</ele>
        <time>2022-06-09T13:49:13.626Z</time>
      </trkpt>
      <trkpt lat="42.26388" lon="8.89474">
        <ele>1429.5</ele>
        <time>2022-06-09T13:49:18.413Z</time>
      </trkpt>
      <trkpt lat="42.26366" lon="8.89483">
        <ele>1439.7</ele>
        <time>2022-06-09T13:49:23.230Z</time>
      </trkpt>
      <trkpt lat="42.26361" lon="8.89481">
        <ele>1442.4</ele>
        <time>2022-06-09T13:49:28.055Z</time>
      </trkpt>
      <trkpt lat="42.26352" lon="8.89458">
        <ele>1447.4</ele>
        <time>2022-06-09T13:49:32.905Z</time>
      </trkpt>
      <trkpt lat="42.26347" lon="8.89387">
        <ele>1446.2</ele>
        <time>2022-06-09T13:49:37.825Z</time>
      </trkpt>
      <trkpt lat="42.26348" lon="8.89366">
        <ele>1446.7</ele>
        <time>2022-06-09T13:49:42.767Z</time>
      </trkpt>
      <trkpt lat="42.26346" lon="8.89362">
        <ele>1448.1</ele>
        <time>2022-06-09T13:49:47.714Z</time>
      </trkpt>
      <trkpt lat="42.26347" lon="8.89357">
        <ele>1447.7</ele>
        <time>2022-06-09T13:49:52.665Z</time>
      </trkpt>
      <trkpt lat="42.26347" lon="8.89352">
        <ele>1447.9</ele>
        <time>2022-06-09T13:49:57.622Z</time>
      </trkpt>
      <trkpt lat="42.26337" lon="8.89311">
        <ele>1453.3</ele>
        <time>2022-06-09T13:50:02.621Z</time>
      </trkpt>
      <trkpt lat="42.2633" lon="8.89296">
        <ele>1455.2</ele>
        <time>2022-06-09T13:50:07.638Z</time>
      </trkpt>
      <trkpt lat="42.26325" lon="8.89301">
        <ele>1455.7</ele>
        <time>2022-06-09T13:50:12.664Z</time>
      </trkpt>
      <trkpt lat="42.26323" lon="8.89312">
        <ele>1456.5</ele>
        <time>2022-06-09T13:50:17.700Z</time>
      </trkpt>
      <trkpt lat="42.26319" lon="8.89333">
        <ele>1459</ele>
        <time>2022-06-09T13:50:22.757Z</time>
      </trkpt>
      <trkpt lat="42.2632" lon="8.89342">
        <ele>1459.2</ele>
        <time>2022-06-09T13:50:27.824Z</time>
      </trkpt>
      <trkpt lat="42.26314" lon="8.89348">
        <ele>1461.7</ele>
        <time>2022-06-09T13:50:32.901Z</time>
      </trkpt>
      <trkpt lat="42.26307" lon="8.8936">
        <ele>1465.2</ele>
        <time>2022-06-09T13:50:37.994Z</time>
      </trkpt>
      <trkpt lat="42.26302" lon="8.8936">
        <ele>1466.8</ele>
        <time>2022-06-09T13:50:43.094Z</time>
      </trkpt>
      <trkpt lat="42.26297" lon="8.89356">
        <ele>1467.5</ele>
        <time>2022-06-09T13:50:48.202Z</time>
      </trkpt>
      <trkpt lat="42.26288" lon="8.89352">
        <ele>1468.6</ele>
        <time>2022-06-09T13:50:53.322Z</time>
      </trkpt>
      <trkpt lat="42.26281" lon="8.89352">
        <ele>1470.1</ele>
        <time>2022-06-09T13:50:58.452Z</time>
      </trkpt>
      <trkpt lat="42.26288" lon="8.89382">
        <ele>1473.6</ele>
        <time>2022-06-09T13:51:03.614Z</time>
      </trkpt>
      <trkpt lat="42.26289" lon="8.89398">
        <ele>1475.2</ele>
        <time>2022-06-09T13:51:08.792Z</time>
      </trkpt>
      <trkpt lat="42.26287" lon="8.89401">
        <ele>1476.2</ele>
        <time>2022-06-09T13:51:13.974Z</time>
      </trkpt>
      <trkpt lat="42.26276" lon="8.89388">
        <ele>1478.2</ele>
        <time>2022-06-09T13:51:19.175Z</time>
      </trkpt>
      <trkpt lat="42.26275" lon="8.89389">
        <ele>1478.5</ele>
        <time>2022-06-09T13:51:24.378Z</time>
      </trkpt>
      <trkpt lat="42.26274" lon="8.89415">
        <ele>1481.5</ele>
        <time>2022-06-09T13:51:29.606Z</time>
      </trkpt>
      <trkpt lat="42.26273" lon="8.89427">
        <ele>1482.5</ele>
        <time>2022-06-09T13:51:34.846Z</time>
      </trkpt>
      <trkpt lat="42.26268" lon="8.89437">
        <ele>1484</ele>
        <time>2022-06-09T13:51:40.098Z</time>
      </trkpt>
      <trkpt lat="42.2626" lon="8.89445">
        <ele>1485.5</ele>
        <time>2022-06-09T13:51:45.363Z</time>
      </trkpt>
      <trkpt lat="42.26248" lon="8.89448">
        <ele>1487.3</ele>
        <time>2022-06-09T13:51:50.644Z</time>
      </trkpt>
      <trkpt lat="42.26229" lon="8.8946">
        <ele>1491.1</ele>
        <time>2022-06-09T13:51:55.954Z</time>
      </trkpt>
      <trkpt lat="42.26226" lon="8.89469">
        <ele>1492.8</ele>
        <time>2022-06-09T13:52:01.273Z</time>
      </trkpt>
      <trkpt lat="42.26229" lon="8.8949">
        <ele>1494</ele>
        <time>2022-06-09T13:52:06.614Z</time>
      </trkpt>
      <trkpt lat="42.26227" lon="8.89498">
        <ele>1495.3</ele>
        <time>2022-06-09T13:52:11.963Z</time>
      </trkpt>
      <trkpt lat="42.26224" lon="8.89501">
        <ele>1496.3</ele>
        <time>2022-06-09T13:52:17.317Z</time>
      </trkpt>
      <trkpt lat="42.26203" lon="8.89483">
        <ele>1499.7</ele>
        <time>2022-06-09T13:52:22.704Z</time>
      </trkpt>
      <trkpt lat="42.262" lon="8.89484">
        <ele>1500.7</ele>
        <time>2022-06-09T13:52:28.095Z</time>
      </trkpt>
      <trkpt lat="42.26198" lon="8.89497">
        <ele>1503.4</ele>
        <time>2022-06-09T13:52:33.499Z</time>
      </trkpt>
      <trkpt lat="42.26199" lon="8.89503">
        <ele>1503.3</ele>
        <time>2022-06-09T13:52:38.910Z</time>
      </trkpt>
      <trkpt lat="42.26198" lon="8.89511">
        <ele>1502.7</ele>
        <time>2022-06-09T13:52:44.328Z</time>
      </trkpt>
      <trkpt lat="42.26196" lon="8.89513">
        <ele>1503.2</ele>
        <time>2022-06-09T13:52:49.750Z</time>
      </trkpt>
      <trkpt lat="42.26188" lon="8.895">
        <ele>1506.3</ele>
        <time>2022-06-09T13:52:55.188Z</time>
      </trkpt>
      <trkpt lat="42.26154" lon="8.89524">
        <ele>1514.8</ele>
        <time>2022-06-09T13:53:00.677Z</time>
      </trkpt>
      <trkpt lat="42.26087" lon="8.89512">
        <ele>1524.5</ele>
        <time>2022-06-09T13:53:06.256Z</time>
      </trkpt>
      <trkpt lat="42.26087" lon="8.89513">
        <ele>1524.9</ele>
        <time>2022-06-09T13:53:11.836Z</time>
      </trkpt>
      <trkpt lat="42.26096" lon="8.89528">
        <ele>1528.3</ele>
        <time>2022-06-09T13:53:17.435Z</time>
      </trkpt>
      <trkpt lat="42.2611" lon="8.89557">
        <ele>1531.4</ele>
        <time>2022-06-09T13:53:23.068Z</time>
      </trkpt>
      <trkpt lat="42.2611" lon="8.89558">
        <ele>1531.5</ele>
        <time>2022-06-09T13:53:28.702Z</time>
      </trkpt>
      <trkpt lat="42.26108" lon="8.89559">
        <ele>1532.2</ele>
        <time>2022-06-09T13:53:34.339Z</time>
      </trkpt>
      <trkpt lat="42.26069" lon="8.8954">
        <ele>1536.7</ele>
        <time>2022-06-09T13:53:40.031Z</time>
      </trkpt>
      <trkpt lat="42.26068" lon="8.89543">
        <ele>1537.8</ele>
        <time>2022-06-09T13:53:45.726Z</time>
      </trkpt>
      <trkpt lat="42.26089" lon="8.89572">
        <ele>1540.6</ele>
        <time>2022-06-09T13:53:51.461Z</time>
      </trkpt>
      <trkpt lat="42.2609" lon="8.89576">
        <ele>1541</ele>
        <time>2022-06-09T13:53:57.200Z</time>
      </trkpt>
      <trkpt lat="42.26074" lon="8.89567">
        <ele>1543.3</ele>
        <time>2022-06-09T13:54:02.962Z</time>
      </trkpt>
      <trkpt lat="42.26066" lon="8.89561">
        <ele>1543.3</ele>
        <time>2022-06-09T13:54:08.736Z</time>
      </trkpt>
      <trkpt lat="42.26063" lon="8.89562">
        <ele>1544.1</ele>
        <time>2022-06-09T13:54:14.515Z</time>
      </trkpt>
      <trkpt lat="42.26062" lon="8.89564">
        <ele>1544.8</ele>
        <time>2022-06-09T13:54:20.296Z</time>
      </trkpt>
      <trkpt lat="42.26071" lon="8.89592">
        <ele>1547.4</ele>
        <time>2022-06-09T13:54:26.108Z</time>
      </trkpt>
      <trkpt lat="42.2607" lon="8.89594">
        <ele>1547.7</ele>
        <time>2022-06-09T13:54:31.922Z</time>
      </trkpt>
      <trkpt lat="42.26067" lon="8.89595">
        <ele>1548.5</ele>
        <time>2022-06-09T13:54:37.741Z</time>
      </trkpt>
      <trkpt lat="42.26057" lon="8.8959">
        <ele>1550.3</ele>
        <time>2022-06-09T13:54:43.574Z</time>
      </trkpt>
      <trkpt lat="42.26043" lon="8.89592">
        <ele>1552.4</ele>
        <time>2022-06-09T13:54:49.425Z</time>
      </trkpt>
      <trkpt lat="42.26034" lon="8.8959">
        <ele>1553.3</ele>
        <time>2022-06-09T13:54:55.289Z</time>
      </trkpt>
      <trkpt lat="42.2603" lon="8.89591">
        <ele>1553.9</ele>
        <time>2022-06-09T13:55:01.159Z</time>
      </trkpt>
      <trkpt lat="42.26028" lon="8.89595">
        <ele>1554.7</ele>
        <time>2022-06-09T13:55:07.034Z</time>
      </trkpt>
      <trkpt lat="42.2604" lon="8.89632">
        <ele>1557.9</ele>
        <time>2022-06-09T13:55:12.948Z</time>
      </trkpt>
      <trkpt lat="42.26039" lon="8.89638">
        <ele>1558.9</ele>
        <time>2022-06-09T13:55:18.869Z</time>
      </trkpt>
      <trkpt lat="42.25991" lon="8.89678">
        <ele>1566.3</ele>
        <time>2022-06-09T13:55:24.865Z</time>
      </trkpt>
      <trkpt lat="42.2599" lon="8.89681">
        <ele>1566.9</ele>
        <time>2022-06-09T13:55:30.865Z</time>
      </trkpt>
      <trkpt lat="42.26005" lon="8.89691">
        <ele>1569.8</ele>
        <time>2022-06-09T13:55:36.887Z</time>
      </trkpt>
      <trkpt lat="42.26014" lon="8.89708">
        <ele>1570.3</ele>
        <time>2022-06-09T13:55:42.930Z</time>
      </trkpt>
      <trkpt lat="42.26004" lon="8.89713">
        <ele>1573.5</ele>
        <time>2022-06-09T13:55:48.988Z</time>
      </trkpt>
      <trkpt lat="42.25996" lon="8.89714">
        <ele>1574.4</ele>
        <time>2022-06-09T13:55:55.056Z</time>
      </trkpt>
      <trkpt lat="42.25994" lon="8.89719">
        <ele>1575.1</ele>
        <time>2022-06-09T13:56:01.130Z</time>
      </trkpt>
      <trkpt lat="42.25996" lon="8.89731">
        <ele>1576.4</ele>
        <time>2022-06-09T13:56:07.216Z</time>
      </trkpt>
      <trkpt lat="42.2599" lon="8.89747">
        <ele>1578.8</ele>
        <time>2022-06-09T13:56:13.320Z</time>
      </trkpt>
      <trkpt lat="42.25976" lon="8.89762">
        <ele>1583.1</ele>
        <time>2022-06-09T13:56:19.447Z</time>
      </trkpt>
      <trkpt lat="42.25964" lon="8.89782">
        <ele>1585.9</ele>
        <time>2022-06-09T13:56:25.600Z</time>
      </trkpt>
      <trkpt lat="42.25953" lon="8.89796">
        <ele>1588</ele>
        <time>2022-06-09T13:56:31.773Z</time>
      </trkpt>
      <trkpt lat="42.25949" lon="8.89817">
        <ele>1591.4</ele>
        <time>2022-06-09T13:56:37.968Z</time>
      </trkpt>
      <trkpt lat="42.25937" lon="8.89825">
        <ele>1592.9</ele>
        <time>2022-06-09T13:56:44.180Z</time>
      </trkpt>
      <trkpt lat="42.25934" lon="8.89839">
        <ele>1594.1</ele>
        <time>2022-06-09T13:56:50.407Z</time>
      </trkpt>
      <trkpt lat="42.25933" lon="8.89856">
        <ele>1594.8</ele>
        <time>2022-06-09T13:56:56.651Z</time>
      </trkpt>
      <trkpt lat="42.25921" lon="8.89882">
        <ele>1598.2</ele>
        <time>2022-06-09T13:57:02.925Z</time>
      </trkpt>
      <trkpt lat="42.25914" lon="8.89908">
        <ele>1601.3</ele>
        <time>2022-06-09T13:57:09.226Z</time>
      </trkpt>
      <trkpt lat="42.259" lon="8.89931">
        <ele>1603.2</ele>
        <time>2022-06-09T13:57:15.557Z</time>
      </trkpt>
      <trkpt lat="42.25886" lon="8.89941">
        <ele>1607.8</ele>
        <time>2022-06-09T13:57:21.909Z</time>
      </trkpt>
      <trkpt lat="42.25859" lon="8.90027">
        <ele>1621.3</ele>
        <time>2022-06-09T13:57:28.353Z</time>
      </trkpt>
      <trkpt lat="42.25829" lon="8.90101">
        <ele>1630.5</ele>
        <time>2022-06-09T13:57:34.881Z</time>
      </trkpt>
      <trkpt lat="42.25821" lon="8.90126">
        <ele>1633.4</ele>
        <time>2022-06-09T13:57:41.436Z</time>
      </trkpt>
      <trkpt lat="42.25817" lon="8.90147">
        <ele>1635.6</ele>
        <time>2022-06-09T13:57:48.012Z</time>
      </trkpt>
      <trkpt lat="42.25818" lon="8.90159">
        <ele>1635.2</ele>
        <time>2022-06-09T13:57:54.600Z</time>
      </trkpt>
      <trkpt lat="42.25806" lon="8.90224">
        <ele>1640.1</ele>
        <time>2022-06-09T13:58:01.255Z</time>
      </trkpt>
      <trkpt lat="42.2579" lon="8.90239">
        <ele>1642</ele>
        <time>2022-06-09T13:58:07.936Z</time>
      </trkpt>
      <trkpt lat="42.25749" lon="8.90258">
        <ele>1648.9</ele>
        <time>2022-06-09T13:58:14.674Z</time>
      </trkpt>
      <trkpt lat="42.25727" lon="8.90282">
        <ele>1649.9</ele>
        <time>2022-06-09T13:58:21.450Z</time>
      </trkpt>
      <trkpt lat="42.25714" lon="8.90292">
        <ele>1652.4</ele>
        <time>2022-06-09T13:58:28.246Z</time>
      </trkpt>
      <trkpt lat="42.25707" lon="8.90307">
        <ele>1650.7</ele>
        <time>2022-06-09T13:58:35.060Z</time>
      </trkpt>
      <trkpt lat="42.25704" lon="8.90317">
        <ele>1648.5</ele>
        <time>2022-06-09T13:58:41.885Z</time>
      </trkpt>
      <trkpt lat="42.25677" lon="8.90332">
        <ele>1654.7</ele>
        <time>2022-06-09T13:58:48.750Z</time>
      </trkpt>
      <trkpt lat="42.25627" lon="8.90387">
        <ele>1664.2</ele>
        <time>2022-06-09T13:58:55.700Z</time>
      </trkpt>
      <trkpt lat="42.25609" lon="8.90426">
        <ele>1667.8</ele>
        <time>2022-06-09T13:59:02.695Z</time>
      </trkpt>
      <trkpt lat="42.25604" lon="8.90471">
        <ele>1667.6</ele>
        <time>2022-06-09T13:59:09.736Z</time>
      </trkpt>
      <trkpt lat="42.25593" lon="8.90506">
        <ele>1672.8</ele>
        <time>2022-06-09T13:59:16.815Z</time>
      </trkpt>
      <trkpt lat="42.25592" lon="8.90525">
        <ele>1674.3</ele>
        <time>2022-06-09T13:59:23.912Z</time>
      </trkpt>
      <trkpt lat="42.25594" lon="8.90557">
        <ele>1676.4</ele>
        <time>2022-06-09T13:59:31.041Z</time>
      </trkpt>
      <trkpt lat="42.25586" lon="8.90629">
        <ele>1685</ele>
        <time>2022-06-09T13:59:38.241Z</time>
      </trkpt>
      <trkpt lat="42.25589" lon="8.90652">
        <ele>1687.5</ele>
        <time>2022-06-09T13:59:45.465Z</time>
      </trkpt>
      <trkpt lat="42.25578" lon="8.90631">
        <ele>1689.2</ele>
        <time>2022-06-09T13:59:52.715Z</time>
      </trkpt>
      <trkpt lat="42.25564" lon="8.90585">
        <ele>1693.4</ele>
        <time>2022-06-09T14:00:00.014Z</time>
      </trkpt>
      <trkpt lat="42.25557" lon="8.90597">
        <ele>1696.2</ele>
        <time>2022-06-09T14:00:07.328Z</time>
      </trkpt>
      <trkpt lat="42.25553" lon="8.90621">
        <ele>1699.1</ele>
        <time>2022-06-09T14:00:14.666Z</time>
      </trkpt>
      <trkpt lat="42.25552" lon="8.90646">
        <ele>1702.8</ele>
        <time>2022-06-09T14:00:22.029Z</time>
      </trkpt>
      <trkpt lat="42.25578" lon="8.90697">
        <ele>1706.1</ele>
        <time>2022-06-09T14:00:29.453Z</time>
      </trkpt>
      <trkpt lat="42.25589" lon="8.90715">
        <ele>1707.5</ele>
        <time>2022-06-09T14:00:36.900Z</time>
      </trkpt>
      <trkpt lat="42.25589" lon="8.90733">
        <ele>1711.3</ele>
        <time>2022-06-09T14:00:44.364Z</time>
      </trkpt>
      <trkpt lat="42.2553" lon="8.90675">
        <ele>1719.8</ele>
        <time>2022-06-09T14:00:51.926Z</time>
      </trkpt>
      <trkpt lat="42.255" lon="8.90658">
        <ele>1727.3</ele>
        <time>2022-06-09T14:00:59.531Z</time>
      </trkpt>
      <trkpt lat="42.25536" lon="8.90735">
        <ele>1733.8</ele>
        <time>2022-06-09T14:01:07.227Z</time>
      </trkpt>
      <trkpt lat="42.25543" lon="8.90763">
        <ele>1735.8</ele>
        <time>2022-06-09T14:01:14.952Z</time>
      </trkpt>
      <trkpt lat="42.25543" lon="8.90784">
        <ele>1738.8</ele>
        <time>2022-06-09T14:01:22.699Z</time>
      </trkpt>
      <trkpt lat="42.25507" lon="8.90735">
        <ele>1746.6</ele>
        <time>2022-06-09T14:01:30.514Z</time>
      </trkpt>
      <trkpt lat="42.25509" lon="8.90755">
        <ele>1749.8</ele>
        <time>2022-06-09T14:01:38.350Z</time>
      </trkpt>
      <trkpt lat="42.25519" lon="8.90797">
        <ele>1751.6</ele>
        <time>2022-06-09T14:01:46.229Z</time>
      </trkpt>
      <trkpt lat="42.25518" lon="8.90845">
        <ele>1751.1</ele>
        <time>2022-06-09T14:01:54.156Z</time>
      </trkpt>
      <trkpt lat="42.25503" lon="8.90914">
        <ele>1757.3</ele>
        <time>2022-06-09T14:02:02.154Z</time>
      </trkpt>
      <trkpt lat="42.25507" lon="8.90942">
        <ele>1756.9</ele>
        <time>2022-06-09T14:02:10.180Z</time>
      </trkpt>
      <trkpt lat="42.25507" lon="8.90988">
        <ele>1762.9</ele>
        <time>2022-06-09T14:02:18.252Z</time>
      </trkpt>
      <trkpt lat="42.2554" lon="8.91053">
        <ele>1767.1</ele>
        <time>2022-06-09T14:02:26.402Z</time>
      </trkpt>
      <trkpt lat="42.25547" lon="8.9108">
        <ele>1769</ele>
        <time>2022-06-09T14:02:34.580Z</time>
      </trkpt>
      <trkpt lat="42.25548" lon="8.91137">
        <ele>1772.3</ele>
        <time>2022-06-09T14:02:42.815Z</time>
      </trkpt>
      <trkpt lat="42.25538" lon="8.91184">
        <ele>1774.2</ele>
        <time>2022-06-09T14:02:51.098Z</time>
      </trkpt>
      <trkpt lat="42.25531" lon="8.91237">
        <ele>1776.9</ele>
        <time>2022-06-09T14:02:59.434Z</time>
      </trkpt>
      <trkpt lat="42.25522" lon="8.91299">
        <ele>1776.9</ele>
        <time>2022-06-09T14:03:07.833Z</time>
      </trkpt>
      <trkpt lat="42.25515" lon="8.91395">
        <ele>1782.1</ele>
        <time>2022-06-09T14:03:16.327Z</time>
      </trkpt>
      <trkpt lat="42.25523" lon="8.91442">
        <ele>1793.3</ele>
        <time>2022-06-09T14:03:24.869Z</time>
      </trkpt>
      <trkpt lat="42.25531" lon="8.91516">
        <ele>1805</ele>
        <time>2022-06-09T14:03:33.485Z</time>
      </trkpt>
      <trkpt lat="42.2554" lon="8.9156">
        <ele>1805.3</ele>
        <time>2022-06-09T14:03:42.146Z</time>
      </trkpt>
      <trkpt lat="42.25538" lon="8.91582">
        <ele>1802.3</ele>
        <time>2022-06-09T14:03:50.830Z</time>
      </trkpt>
      <trkpt lat="42.25528" lon="8.91592">
        <ele>1801</ele>
        <time>2022-06-09T14:03:59.530Z</time>
      </trkpt>
      <trkpt lat="42.25535" lon="8.91707">
        <ele>1793.9</ele>
        <time>2022-06-09T14:04:08.344Z</time>
      </trkpt>
      <trkpt lat="42.25532" lon="8.91751">
        <ele>1797.2</ele>
        <time>2022-06-09T14:04:17.202Z</time>
      </trkpt>
      <trkpt lat="42.25543" lon="8.91744">
        <ele>1802.9</ele>
        <time>2022-06-09T14:04:26.077Z</time>
      </trkpt>
      <trkpt lat="42.25541" lon="8.91772">
        <ele>1805.5</ele>
        <time>2022-06-09T14:04:34.979Z</time>
      </trkpt>
      <trkpt lat="42.25557" lon="8.91756">
        <ele>1810.6</ele>
        <time>2022-06-09T14:04:43.908Z</time>
      </trkpt>
      <trkpt lat="42.25549" lon="8.91808">
        <ele>1817.8</ele>
        <time>2022-06-09T14:04:52.889Z</time>
      </trkpt>
      <trkpt lat="42.25576" lon="8.91809">
        <ele>1823.5</ele>
        <time>2022-06-09T14:05:01.906Z</time>
      </trkpt>
      <trkpt lat="42.25572" lon="8.91811">
        <ele>1823.8</ele>
        <time>2022-06-09T14:05:10.928Z</time>
      </trkpt>
      <trkpt lat="42.25572" lon="8.91811">
        <ele>1823.8</ele>
        <time>2022-06-09T14:05:19.950Z</time>
      </trkpt>
      <trkpt lat="42.25557" lon="8.91825">
        <ele>1825.5</ele>
        <time>2022-06-09T14:05:28.996Z</time>
      </trkpt>
      <trkpt lat="42.2556" lon="8.91907">
        <ele>1832.2</ele>
        <time>2022-06-09T14:05:38.124Z</time>
      </trkpt>
      <trkpt lat="42.25554" lon="8.91977">
        <ele>1837.1</ele>
        <time>2022-06-09T14:05:47.322Z</time>
      </trkpt>
      <trkpt lat="42.2553" lon="8.92108">
        <ele>1839.5</ele>
        <time>2022-06-09T14:05:56.653Z</time>
      </trkpt>
      <trkpt lat="42.25487" lon="8.92192">
        <ele>1844.5</ele>
        <time>2022-06-09T14:06:06.085Z</time>
      </trkpt>
      <trkpt lat="42.25463" lon="8.92277">
        <ele>1848.7</ele>
        <time>2022-06-09T14:06:15.607Z</time>
      </trkpt>
      <trkpt lat="42.25423" lon="8.92483">
        <ele>1866.6</ele>
        <time>2022-06-09T14:06:25.339Z</time>
      </trkpt>
      <trkpt lat="42.25421" lon="8.92552">
        <ele>1876.6</ele>
        <time>2022-06-09T14:06:35.140Z</time>
      </trkpt>
      <trkpt lat="42.25429" lon="8.92611">
        <ele>1882.6</ele>
        <time>2022-06-09T14:06:45.001Z</time>
      </trkpt>
      <trkpt lat="42.25429" lon="8.92611">
        <ele>1882.6</ele>
        <time>2022-06-09T14:06:54.862Z</time>
      </trkpt>
      <trkpt lat="42.25434" lon="8.92655">
        <ele>1882.8</ele>
        <time>2022-06-09T14:07:04.767Z</time>
      </trkpt>
      <trkpt lat="42.2543" lon="8.92693">
        <ele>1880.1</ele>
        <time>2022-06-09T14:07:14.710Z</time>
      </trkpt>
      <trkpt lat="42.25456" lon="8.92795">
        <ele>1864.9</ele>
        <time>2022-06-09T14:07:24.759Z</time>
      </trkpt>
      <trkpt lat="42.25465" lon="8.92851">
        <ele>1857.1</ele>
        <time>2022-06-09T14:07:34.865Z</time>
      </trkpt>
      <trkpt lat="42.25478" lon="8.9294">
        <ele>1851.4</ele>
        <time>2022-06-09T14:07:45.061Z</time>
      </trkpt>
      <trkpt lat="42.25483" lon="8.93032">
        <ele>1850.1</ele>
        <time>2022-06-09T14:07:55.348Z</time>
      </trkpt>
      <trkpt lat="42.25482" lon="8.93089">
        <ele>1848.6</ele>
        <time>2022-06-09T14:08:05.692Z</time>
      </trkpt>
      <trkpt lat="42.25474" lon="8.93146">
        <ele>1848.5</ele>
        <time>2022-06-09T14:08:16.093Z</time>
      </trkpt>
      <trkpt lat="42.25495" lon="8.9322">
        <ele>1845.8</ele>
        <time>2022-06-09T14:08:26.573Z</time>
      </trkpt>
      <trkpt lat="42.25509" lon="8.93245">
        <ele>1843.7</ele>
        <time>2022-06-09T14:08:37.084Z</time>
      </trkpt>
      <trkpt lat="42.25515" lon="8.93279">
        <ele>1842.3</ele>
        <time>2022-06-09T14:08:47.629Z</time>
      </trkpt>
      <trkpt lat="42.2552" lon="8.93318">
        <ele>1839.8</ele>
        <time>2022-06-09T14:08:58.214Z</time>
      </trkpt>
      <trkpt lat="42.25511" lon="8.93346">
        <ele>1838.8</ele>
        <time>2022-06-09T14:09:08.829Z</time>
      </trkpt>
      <trkpt lat="42.25513" lon="8.93381">
        <ele>1834.1</ele>
        <time>2022-06-09T14:09:19.478Z</time>
      </trkpt>
      <trkpt lat="42.25538" lon="8.93376">
        <ele>1829.2</ele>
        <time>2022-06-09T14:09:30.160Z</time>
      </trkpt>
      <trkpt lat="42.25539" lon="8.93396">
        <ele>1826.9</ele>
        <time>2022-06-09T14:09:40.861Z</time>
      </trkpt>
      <trkpt lat="42.25537" lon="8.93419">
        <ele>1822.8</ele>
        <time>2022-06-09T14:09:51.586Z</time>
      </trkpt>
      <trkpt lat="42.25545" lon="8.93426">
        <ele>1820</ele>
        <time>2022-06-09T14:10:02.323Z</time>
      </trkpt>
      <trkpt lat="42.25559" lon="8.93421">
        <ele>1817.6</ele>
        <time>2022-06-09T14:10:13.079Z</time>
      </trkpt>
      <trkpt lat="42.25562" lon="8.93425">
        <ele>1815.6</ele>
        <time>2022-06-09T14:10:23.840Z</time>
      </trkpt>
      <trkpt lat="42.25561" lon="8.93441">
        <ele>1812.4</ele>
        <time>2022-06-09T14:10:34.617Z</time>
      </trkpt>
      <trkpt lat="42.25552" lon="8.93447">
        <ele>1813.4</ele>
        <time>2022-06-09T14:10:45.407Z</time>
      </trkpt>
      <trkpt lat="42.25535" lon="8.93504">
        <ele>1806.7</ele>
        <time>2022-06-09T14:10:56.258Z</time>
      </trkpt>
      <trkpt lat="42.25554" lon="8.93499">
        <ele>1803.6</ele>
        <time>2022-06-09T14:11:07.135Z</time>
      </trkpt>
      <trkpt lat="42.25553" lon="8.93514">
        <ele>1801.5</ele>
        <time>2022-06-09T14:11:18.027Z</time>
      </trkpt>
      <trkpt lat="42.25533" lon="8.93544">
        <ele>1799</ele>
        <time>2022-06-09T14:11:28.960Z</time>
      </trkpt>
      <trkpt lat="42.25548" lon="8.93554">
        <ele>1795.1</ele>
        <time>2022-06-09T14:11:39.915Z</time>
      </trkpt>
      <trkpt lat="42.25549" lon="8.93571">
        <ele>1792.3</ele>
        <time>2022-06-09T14:11:50.887Z</time>
      </trkpt>
      <trkpt lat="42.25565" lon="8.93643">
        <ele>1781.1</ele>
        <time>2022-06-09T14:12:01.934Z</time>
      </trkpt>
      <trkpt lat="42.25587" lon="8.93663">
        <ele>1776.5</ele>
        <time>2022-06-09T14:12:13.016Z</time>
      </trkpt>
      <trkpt lat="42.25594" lon="8.93676">
        <ele>1774.3</ele>
        <time>2022-06-09T14:12:24.114Z</time>
      </trkpt>
      <trkpt lat="42.25597" lon="8.93685">
        <ele>1772.8</ele>
        <time>2022-06-09T14:12:35.222Z</time>
      </trkpt>
      <trkpt lat="42.256" lon="8.9369">
        <ele>1772</ele>
        <time>2022-06-09T14:12:46.336Z</time>
      </trkpt>
      <trkpt lat="42.25618" lon="8.93697">
        <ele>1768.4</ele>
        <time>2022-06-09T14:12:57.474Z</time>
      </trkpt>
      <trkpt lat="42.25629" lon="8.9372">
        <ele>1764.5</ele>
        <time>2022-06-09T14:13:08.640Z</time>
      </trkpt>
      <trkpt lat="42.25633" lon="8.9373">
        <ele>1762.7</ele>
        <time>2022-06-09T14:13:19.817Z</time>
      </trkpt>
      <trkpt lat="42.25639" lon="8.93736">
        <ele>1761</ele>
        <time>2022-06-09T14:13:31.004Z</time>
      </trkpt>
      <trkpt lat="42.2565" lon="8.93737">
        <ele>1758.6</ele>
        <time>2022-06-09T14:13:42.205Z</time>
      </trkpt>
      <trkpt lat="42.25663" lon="8.93747">
        <ele>1754.9</ele>
        <time>2022-06-09T14:13:53.427Z</time>
      </trkpt>
      <trkpt lat="42.25673" lon="8.93753">
        <ele>1752.8</ele>
        <time>2022-06-09T14:14:04.664Z</time>
      </trkpt>
      <trkpt lat="42.25678" lon="8.93761">
        <ele>1751.7</ele>
        <time>2022-06-09T14:14:15.911Z</time>
      </trkpt>
      <trkpt lat="42.25677" lon="8.93772">
        <ele>1751</ele>
        <time>2022-06-09T14:14:27.169Z</time>
      </trkpt>
      <trkpt lat="42.25674" lon="8.93786">
        <ele>1750.1</ele>
        <time>2022-06-09T14:14:38.441Z</time>
      </trkpt>
      <trkpt lat="42.25669" lon="8.93797">
        <ele>1749.5</ele>
        <time>2022-06-09T14:14:49.726Z</time>
      </trkpt>
      <trkpt lat="42.25671" lon="8.9382">
        <ele>1747.9</ele>
        <time>2022-06-09T14:15:01.034Z</time>
      </trkpt>
      <trkpt lat="42.2567" lon="8.93833">
        <ele>1747</ele>
        <time>2022-06-09T14:15:12.355Z</time>
      </trkpt>
      <trkpt lat="42.25693" lon="8.93909">
        <ele>1748</ele>
        <time>2022-06-09T14:15:23.757Z</time>
      </trkpt>
      <trkpt lat="42.25698" lon="8.93917">
        <ele>1748.3</ele>
        <time>2022-06-09T14:15:35.170Z</time>
      </trkpt>
      <trkpt lat="42.25697" lon="8.93926">
        <ele>1748.5</ele>
        <time>2022-06-09T14:15:46.591Z</time>
      </trkpt>
      <trkpt lat="42.25674" lon="8.93966">
        <ele>1749.2</ele>
        <time>2022-06-09T14:15:58.063Z</time>
      </trkpt>
      <trkpt lat="42.25664" lon="8.93995">
        <ele>1748.6</ele>
        <time>2022-06-09T14:16:09.567Z</time>
      </trkpt>
      <trkpt lat="42.25663" lon="8.94012">
        <ele>1748.7</ele>
        <time>2022-06-09T14:16:21.088Z</time>
      </trkpt>
      <trkpt lat="42.25656" lon="8.94045">
        <ele>1748.6</ele>
        <time>2022-06-09T14:16:32.642Z</time>
      </trkpt>
      <trkpt lat="42.25642" lon="8.94071">
        <ele>1747.4</ele>
        <time>2022-06-09T14:16:44.228Z</time>
      </trkpt>
      <trkpt lat="42.25639" lon="8.94095">
        <ele>1747.4</ele>
        <time>2022-06-09T14:16:55.838Z</time>
      </trkpt>
      <trkpt lat="42.25623" lon="8.9413">
        <ele>1747.5</ele>
        <time>2022-06-09T14:17:07.489Z</time>
      </trkpt>
      <trkpt lat="42.25611" lon="8.94151">
        <ele>1747.4</ele>
        <time>2022-06-09T14:17:19.166Z</time>
      </trkpt>
      <trkpt lat="42.2556" lon="8.94204">
        <ele>1748.2</ele>
        <time>2022-06-09T14:17:30.929Z</time>
      </trkpt>
      <trkpt lat="42.25518" lon="8.94229">
        <ele>1749.6</ele>
        <time>2022-06-09T14:17:42.753Z</time>
      </trkpt>
      <trkpt lat="42.25502" lon="8.94247">
        <ele>1749.2</ele>
        <time>2022-06-09T14:17:54.605Z</time>
      </trkpt>
      <trkpt lat="42.25458" lon="8.94267">
        <ele>1748.1</ele>
        <time>2022-06-09T14:18:06.519Z</time>
      </trkpt>
      <trkpt lat="42.25445" lon="8.94299">
        <ele>1749.5</ele>
        <time>2022-06-09T14:18:18.469Z</time>
      </trkpt>
      <trkpt lat="42.25435" lon="8.94307">
        <ele>1749.3</ele>
        <time>2022-06-09T14:18:30.435Z</time>
      </trkpt>
      <trkpt lat="42.25415" lon="8.94371">
        <ele>1748.9</ele>
        <time>2022-06-09T14:18:42.469Z</time>
      </trkpt>
      <trkpt lat="42.25362" lon="8.94482">
        <ele>1749.2</ele>
        <time>2022-06-09T14:18:54.634Z</time>
      </trkpt>
      <trkpt lat="42.25354" lon="8.94534">
        <ele>1748.6</ele>
        <time>2022-06-09T14:19:06.851Z</time>
      </trkpt>
      <trkpt lat="42.25318" lon="8.94591">
        <ele>1747.7</ele>
        <time>2022-06-09T14:19:19.141Z</time>
      </trkpt>
      <trkpt lat="42.25296" lon="8.94621">
        <ele>1747.1</ele>
        <time>2022-06-09T14:19:31.474Z</time>
      </trkpt>
      <trkpt lat="42.25291" lon="8.94637">
        <ele>1747.8</ele>
        <time>2022-06-09T14:19:43.824Z</time>
      </trkpt>
      <trkpt lat="42.25277" lon="8.94666">
        <ele>1746.9</ele>
        <time>2022-06-09T14:19:56.208Z</time>
      </trkpt>
      <trkpt lat="42.25271" lon="8.94685">
        <ele>1747.2</ele>
        <time>2022-06-09T14:20:08.613Z</time>
      </trkpt>
      <trkpt lat="42.25255" lon="8.94757">
        <ele>1747.6</ele>
        <time>2022-06-09T14:20:21.092Z</time>
      </trkpt>
      <trkpt lat="42.25252" lon="8.94797">
        <ele>1747.2</ele>
        <time>2022-06-09T14:20:33.611Z</time>
      </trkpt>
      <trkpt lat="42.25257" lon="8.9487">
        <ele>1747.3</ele>
        <time>2022-06-09T14:20:46.202Z</time>
      </trkpt>
      <trkpt lat="42.25263" lon="8.94903">
        <ele>1747.2</ele>
        <time>2022-06-09T14:20:58.827Z</time>
      </trkpt>
      <trkpt lat="42.25276" lon="8.94946">
        <ele>1746.8</ele>
        <time>2022-06-09T14:21:11.498Z</time>
      </trkpt>
      <trkpt lat="42.25291" lon="8.94983">
        <ele>1746.1</ele>
        <time>2022-06-09T14:21:24.211Z</time>
      </trkpt>
      <trkpt lat="42.25297" lon="8.95002">
        <ele>1746</ele>
        <time>2022-06-09T14:21:36.944Z</time>
      </trkpt>
      <trkpt lat="42.25302" lon="8.95052">
        <ele>1746.7</ele>
        <time>2022-06-09T14:21:49.727Z</time>
      </trkpt>
      <trkpt lat="42.25307" lon="8.95076">
        <ele>1747.1</ele>
        <time>2022-06-09T14:22:02.535Z</time>
      </trkpt>
      <trkpt lat="42.25319" lon="8.9511">
        <ele>1747</ele>
        <time>2022-06-09T14:22:15.380Z</time>
      </trkpt>
      <trkpt lat="42.25324" lon="8.95124">
        <ele>1746.8</ele>
        <time>2022-06-09T14:22:28.240Z</time>
      </trkpt>
      <trkpt lat="42.25326" lon="8.95142">
        <ele>1746.5</ele>
        <time>2022-06-09T14:22:41.118Z</time>
      </trkpt>
      <trkpt lat="42.25324" lon="8.95182">
        <ele>1746.9</ele>
        <time>2022-06-09T14:22:54.036Z</time>
      </trkpt>
      <trkpt lat="42.25326" lon="8.95212">
        <ele>1746.7</ele>
        <time>2022-06-09T14:23:06.984Z</time>
      </trkpt>
      <trkpt lat="42.25326" lon="8.9526">
        <ele>1746.3</ele>
        <time>2022-06-09T14:23:19.979Z</time>
      </trkpt>
      <trkpt lat="42.25331" lon="8.953">
        <ele>1746</ele>
        <time>2022-06-09T14:23:33.014Z</time>
      </trkpt>
      <trkpt lat="42.25334" lon="8.9532">
        <ele>1745.6</ele>
        <time>2022-06-09T14:23:46.070Z</time>
      </trkpt>
      <trkpt lat="42.25342" lon="8.95341">
        <ele>1745.5</ele>
        <time>2022-06-09T14:23:59.149Z</time>
      </trkpt>
      <trkpt lat="42.25358" lon="8.95372">
        <ele>1746</ele>
        <time>2022-06-09T14:24:12.265Z</time>
      </trkpt>
      <trkpt lat="42.25366" lon="8.95418">
        <ele>1744.7</ele>
        <time>2022-06-09T14:24:25.428Z</time>
      </trkpt>
      <trkpt lat="42.25368" lon="8.95435">
        <ele>1743.6</ele>
        <time>2022-06-09T14:24:38.608Z</time>
      </trkpt>
      <trkpt lat="42.25387" lon="8.95519">
        <ele>1743.1</ele>
        <time>2022-06-09T14:24:51.875Z</time>
      </trkpt>
      <trkpt lat="42.25406" lon="8.95629">
        <ele>1740.1</ele>
        <time>2022-06-09T14:25:05.255Z</time>
      </trkpt>
      <trkpt lat="42.25409" lon="8.95657">
        <ele>1737.8</ele>
        <time>2022-06-09T14:25:18.662Z</time>
      </trkpt>
      <trkpt lat="42.254" lon="8.95734">
        <ele>1730.7</ele>
        <time>2022-06-09T14:25:32.147Z</time>
      </trkpt>
      <trkpt lat="42.25395" lon="8.95746">
        <ele>1729.7</ele>
        <time>2022-06-09T14:25:45.645Z</time>
      </trkpt>
      <trkpt lat="42.25385" lon="8.95754">
        <ele>1729.3</ele>
        <time>2022-06-09T14:25:59.159Z</time>
      </trkpt>
      <trkpt lat="42.2537" lon="8.95758">
        <ele>1730.4</ele>
        <time>2022-06-09T14:26:12.694Z</time>
      </trkpt>
      <trkpt lat="42.25355" lon="8.95768">
        <ele>1730.9</ele>
        <time>2022-06-09T14:26:26.251Z</time>
      </trkpt>
      <trkpt lat="42.25329" lon="8.95797">
        <ele>1730.8</ele>
        <time>2022-06-09T14:26:39.853Z</time>
      </trkpt>
      <trkpt lat="42.25303" lon="8.95832">
        <ele>1731.6</ele>
        <time>2022-06-09T14:26:53.504Z</time>
      </trkpt>
      <trkpt lat="42.25295" lon="8.95843">
        <ele>1732.3</ele>
        <time>2022-06-09T14:27:07.170Z</time>
      </trkpt>
      <trkpt lat="42.25263" lon="8.95913">
        <ele>1729.2</ele>
        <time>2022-06-09T14:27:20.917Z</time>
      </trkpt>
      <trkpt lat="42.25194" lon="8.95989">
        <ele>1725.5</ele>
        <time>2022-06-09T14:27:34.783Z</time>
      </trkpt>
      <trkpt lat="42.25166" lon="8.96017">
        <ele>1724</ele>
        <time>2022-06-09T14:27:48.696Z</time>
      </trkpt>
      <trkpt lat="42.25145" lon="8.96025">
        <ele>1722.3</ele>
        <time>2022-06-09T14:28:02.637Z</time>
      </trkpt>
      <trkpt lat="42.25143" lon="8.96032">
        <ele>1721.4</ele>
        <time>2022-06-09T14:28:16.585Z</time>
      </trkpt>
      <trkpt lat="42.25143" lon="8.96032">
        <ele>1721.4</ele>
        <time>2022-06-09T14:28:30.533Z</time>
      </trkpt>
      <trkpt lat="42.25135" lon="8.96051">
        <ele>1718.6</ele>
        <time>2022-06-09T14:28:44.504Z</time>
      </trkpt>
      <trkpt lat="42.25108" lon="8.96092">
        <ele>1714.5</ele>
        <time>2022-06-09T14:28:58.529Z</time>
      </trkpt>
      <trkpt lat="42.25097" lon="8.96126">
        <ele>1709.4</ele>
        <time>2022-06-09T14:29:12.590Z</time>
      </trkpt>
      <trkpt lat="42.25088" lon="8.96146">
        <ele>1705.9</ele>
        <time>2022-06-09T14:29:26.675Z</time>
      </trkpt>
      <trkpt lat="42.25078" lon="8.96159">
        <ele>1703.3</ele>
        <time>2022-06-09T14:29:40.778Z</time>
      </trkpt>
      <trkpt lat="42.25022" lon="8.96199">
        <ele>1689</ele>
        <time>2022-06-09T14:29:54.966Z</time>
      </trkpt>
      <trkpt lat="42.25008" lon="8.96214">
        <ele>1684.7</ele>
        <time>2022-06-09T14:30:09.177Z</time>
      </trkpt>
      <trkpt lat="42.24994" lon="8.96216">
        <ele>1682</ele>
        <time>2022-06-09T14:30:23.407Z</time>
      </trkpt>
      <trkpt lat="42.24966" lon="8.96216">
        <ele>1675.9</ele>
        <time>2022-06-09T14:30:37.674Z</time>
      </trkpt>
      <trkpt lat="42.2496" lon="8.96213">
        <ele>1674.5</ele>
        <time>2022-06-09T14:30:51.950Z</time>
      </trkpt>
      <trkpt lat="42.24946" lon="8.96196">
        <ele>1671.4</ele>
        <time>2022-06-09T14:31:06.252Z</time>
      </trkpt>
      <trkpt lat="42.24936" lon="8.96191">
        <ele>1669.2</ele>
        <time>2022-06-09T14:31:20.567Z</time>
      </trkpt>
      <trkpt lat="42.2492" lon="8.96195">
        <ele>1665.7</ele>
        <time>2022-06-09T14:31:34.904Z</time>
      </trkpt>
      <trkpt lat="42.24915" lon="8.96194">
        <ele>1664.7</ele>
        <time>2022-06-09T14:31:49.248Z</time>
      </trkpt>
      <trkpt lat="42.24895" lon="8.96183">
        <ele>1661.9</ele>
        <time>2022-06-09T14:32:03.620Z</time>
      </trkpt>
      <trkpt lat="42.24884" lon="8.96179">
        <ele>1660.2</ele>
        <time>2022-06-09T14:32:18.008Z</time>
      </trkpt>
      <trkpt lat="42.24856" lon="8.96185">
        <ele>1655.2</ele>
        <time>2022-06-09T14:32:32.434Z</time>
      </trkpt>
      <trkpt lat="42.24832" lon="8.96176">
        <ele>1652.2</ele>
        <time>2022-06-09T14:32:46.893Z</time>
      </trkpt>
      <trkpt lat="42.24817" lon="8.96196">
        <ele>1649.1</ele>
        <time>2022-06-09T14:33:01.379Z</time>
      </trkpt>
      <trkpt lat="42.24802" lon="8.96205">
        <ele>1646</ele>
        <time>2022-06-09T14:33:15.887Z</time>
      </trkpt>
      <trkpt lat="42.24796" lon="8.96218">
        <ele>1642.9</ele>
        <time>2022-06-09T14:33:30.411Z</time>
      </trkpt>
      <trkpt lat="42.24789" lon="8.96224">
        <ele>1640.8</ele>
        <time>2022-06-09T14:33:44.945Z</time>
      </trkpt>
      <trkpt lat="42.24774" lon="8.96229">
        <ele>1636.9</ele>
        <time>2022-06-09T14:33:59.500Z</time>
      </trkpt>
      <trkpt lat="42.24761" lon="8.96239">
        <ele>1634.2</ele>
        <time>2022-06-09T14:34:14.074Z</time>
      </trkpt>
      <trkpt lat="42.24744" lon="8.96256">
        <ele>1631.4</ele>
        <time>2022-06-09T14:34:28.677Z</time>
      </trkpt>
      <trkpt lat="42.24732" lon="8.96266">
        <ele>1630.5</ele>
        <time>2022-06-09T14:34:43.298Z</time>
      </trkpt>
      <trkpt lat="42.24708" lon="8.9627">
        <ele>1628.6</ele>
        <time>2022-06-09T14:34:57.952Z</time>
      </trkpt>
      <trkpt lat="42.24668" lon="8.9629">
        <ele>1622.3</ele>
        <time>2022-06-09T14:35:12.663Z</time>
      </trkpt>
      <trkpt lat="42.24658" lon="8.96303">
        <ele>1620.3</ele>
        <time>2022-06-09T14:35:27.392Z</time>
      </trkpt>
      <trkpt lat="42.24638" lon="8.96348">
        <ele>1617.4</ele>
        <time>2022-06-09T14:35:42.173Z</time>
      </trkpt>
      <trkpt lat="42.24623" lon="8.96369">
        <ele>1615.4</ele>
        <time>2022-06-09T14:35:56.983Z</time>
      </trkpt>
      <trkpt lat="42.24611" lon="8.9638">
        <ele>1614.6</ele>
        <time>2022-06-09T14:36:11.812Z</time>
      </trkpt>
      <trkpt lat="42.24606" lon="8.96387">
        <ele>1614.1</ele>
        <time>2022-06-09T14:36:26.651Z</time>
      </trkpt>
      <trkpt lat="42.24593" lon="8.96415">
        <ele>1612.5</ele>
        <time>2022-06-09T14:36:41.522Z</time>
      </trkpt>
      <trkpt lat="42.24556" lon="8.96467">
        <ele>1606.3</ele>
        <time>2022-06-09T14:36:56.465Z</time>
      </trkpt>
      <trkpt lat="42.24552" lon="8.96477">
        <ele>1605.7</ele>
        <time>2022-06-09T14:37:11.419Z</time>
      </trkpt>
      <trkpt lat="42.24542" lon="8.9652">
        <ele>1605</ele>
        <time>2022-06-09T14:37:26.417Z</time>
      </trkpt>
      <trkpt lat="42.24533" lon="8.96547">
        <ele>1604.3</ele>
        <time>2022-06-09T14:37:41.445Z</time>
      </trkpt>
      <trkpt lat="42.24526" lon="8.96554">
        <ele>1604</ele>
        <time>2022-06-09T14:37:56.484Z</time>
      </trkpt>
      <trkpt lat="42.24507" lon="8.96567">
        <ele>1602.8</ele>
        <time>2022-06-09T14:38:11.552Z</time>
      </trkpt>
      <trkpt lat="42.24487" lon="8.96577">
        <ele>1602.1</ele>
        <time>2022-06-09T14:38:26.649Z</time>
      </trkpt>
      <trkpt lat="42.24445" lon="8.96621">
        <ele>1600.7</ele>
        <time>2022-06-09T14:38:41.816Z</time>
      </trkpt>
      <trkpt lat="42.24436" lon="8.96643">
        <ele>1600.5</ele>
        <time>2022-06-09T14:38:57.008Z</time>
      </trkpt>
      <trkpt lat="42.24392" lon="8.96687">
        <ele>1601.1</ele>
        <time>2022-06-09T14:39:12.274Z</time>
      </trkpt>
      <trkpt lat="42.24378" lon="8.96712">
        <ele>1601</ele>
        <time>2022-06-09T14:39:27.570Z</time>
      </trkpt>
      <trkpt lat="42.24347" lon="8.96775">
        <ele>1600.7</ele>
        <time>2022-06-09T14:39:42.941Z</time>
      </trkpt>
      <trkpt lat="42.24313" lon="8.96815">
        <ele>1599.9</ele>
        <time>2022-06-09T14:39:58.373Z</time>
      </trkpt>
      <trkpt lat="42.24296" lon="8.96823">
        <ele>1599.5</ele>
        <time>2022-06-09T14:40:13.829Z</time>
      </trkpt>
      <trkpt lat="42.24287" lon="8.9683">
        <ele>1599</ele>
        <time>2022-06-09T14:40:29.298Z</time>
      </trkpt>
      <trkpt lat="42.24244" lon="8.96886">
        <ele>1601.1</ele>
        <time>2022-06-09T14:40:44.847Z</time>
      </trkpt>
      <trkpt lat="42.24213" lon="8.96952">
        <ele>1600.1</ele>
        <time>2022-06-09T14:41:00.474Z</time>
      </trkpt>
      <trkpt lat="42.24196" lon="8.96973">
        <ele>1603.5</ele>
        <time>2022-06-09T14:41:16.131Z</time>
      </trkpt>
      <trkpt lat="42.24186" lon="8.97009">
        <ele>1601.2</ele>
        <time>2022-06-09T14:41:31.827Z</time>
      </trkpt>
      <trkpt lat="42.24178" lon="8.97021">
        <ele>1601</ele>
        <time>2022-06-09T14:41:47.539Z</time>
      </trkpt>
      <trkpt lat="42.24166" lon="8.97032">
        <ele>1601.6</ele>
        <time>2022-06-09T14:42:03.270Z</time>
      </trkpt>
      <trkpt lat="42.24156" lon="8.97044">
        <ele>1601.6</ele>
        <time>2022-06-09T14:42:19.019Z</time>
      </trkpt>
      <trkpt lat="42.24134" lon="8.97079">
        <ele>1601.3</ele>
        <time>2022-06-09T14:42:34.813Z</time>
      </trkpt>
      <trkpt lat="42.24048" lon="8.97166">
        <ele>1598.2</ele>
        <time>2022-06-09T14:42:50.751Z</time>
      </trkpt>
      <trkpt lat="42.23962" lon="8.97287">
        <ele>1599.8</ele>
        <time>2022-06-09T14:43:06.854Z</time>
      </trkpt>
      <trkpt lat="42.23955" lon="8.97293">
        <ele>1599.7</ele>
        <time>2022-06-09T14:43:22.969Z</time>
      </trkpt>
      <trkpt lat="42.23932" lon="8.97302">
        <ele>1600</ele>
        <time>2022-06-09T14:43:39.115Z</time>
      </trkpt>
      <trkpt lat="42.23929" lon="8.97309">
        <ele>1598.9</ele>
        <time>2022-06-09T14:43:55.270Z</time>
      </trkpt>
      <trkpt lat="42.23882" lon="8.97358">
        <ele>1597.4</ele>
        <time>2022-06-09T14:44:11.504Z</time>
      </trkpt>
      <trkpt lat="42.23837" lon="8.97386">
        <ele>1598.1</ele>
        <time>2022-06-09T14:44:27.804Z</time>
      </trkpt>
      <trkpt lat="42.23825" lon="8.97394">
        <ele>1598.3</ele>
        <time>2022-06-09T14:44:44.122Z</time>
      </trkpt>
      <trkpt lat="42.23804" lon="8.97413">
        <ele>1599.3</ele>
        <time>2022-06-09T14:45:00.473Z</time>
      </trkpt>
      <trkpt lat="42.2378" lon="8.97427">
        <ele>1599.7</ele>
        <time>2022-06-09T14:45:16.860Z</time>
      </trkpt>
      <trkpt lat="42.2378" lon="8.97427">
        <ele>1599.7</ele>
        <time>2022-06-09T14:45:33.247Z</time>
      </trkpt>
      <trkpt lat="42.23765" lon="8.97439">
        <ele>1600.2</ele>
        <time>2022-06-09T14:45:49.657Z</time>
      </trkpt>
      <trkpt lat="42.23765" lon="8.97439">
        <ele>1600.2</ele>
        <time>2022-06-09T14:46:06.067Z</time>
      </trkpt>
      <trkpt lat="42.23734" lon="8.97469">
        <ele>1601.2</ele>
        <time>2022-06-09T14:46:22.528Z</time>
      </trkpt>
      <trkpt lat="42.23724" lon="8.97467">
        <ele>1603.1</ele>
        <time>2022-06-09T14:46:39.002Z</time>
      </trkpt>
      <trkpt lat="42.23712" lon="8.97439">
        <ele>1601.8</ele>
        <time>2022-06-09T14:46:55.508Z</time>
      </trkpt>
      <trkpt lat="42.23705" lon="8.97433">
        <ele>1599.8</ele>
        <time>2022-06-09T14:47:12.026Z</time>
      </trkpt>
      <trkpt lat="42.23693" lon="8.97431">
        <ele>1596.2</ele>
        <time>2022-06-09T14:47:28.560Z</time>
      </trkpt>
      <trkpt lat="42.2368" lon="8.97434">
        <ele>1593.6</ele>
        <time>2022-06-09T14:47:45.111Z</time>
      </trkpt>
      <trkpt lat="42.2368" lon="8.97434">
        <ele>1593.6</ele>
        <time>2022-06-09T14:48:01.662Z</time>
      </trkpt>
      <trkpt lat="42.23677" lon="8.97435">
        <ele>1593</ele>
        <time>2022-06-09T14:48:18.218Z</time>
      </trkpt>
      <trkpt lat="42.23644" lon="8.97442">
        <ele>1584.7</ele>
        <time>2022-06-09T14:48:34.817Z</time>
      </trkpt>
      <trkpt lat="42.23632" lon="8.9746">
        <ele>1581.9</ele>
        <time>2022-06-09T14:48:51.440Z</time>
      </trkpt>
      <trkpt lat="42.23625" lon="8.97465">
        <ele>1580.3</ele>
        <time>2022-06-09T14:49:08.073Z</time>
      </trkpt>
      <trkpt lat="42.23625" lon="8.97465">
        <ele>1580.3</ele>
        <time>2022-06-09T14:49:24.707Z</time>
      </trkpt>
      <trkpt lat="42.23622" lon="8.97466">
        <ele>1579.4</ele>
        <time>2022-06-09T14:49:41.345Z</time>
      </trkpt>
      <trkpt lat="42.23617" lon="8.97476">
        <ele>1577.2</ele>
        <time>2022-06-09T14:49:57.995Z</time>
      </trkpt>
      <trkpt lat="42.23608" lon="8.97477">
        <ele>1574.8</ele>
        <time>2022-06-09T14:50:14.656Z</time>
      </trkpt>
      <trkpt lat="42.23589" lon="8.97476">
        <ele>1570.8</ele>
        <time>2022-06-09T14:50:31.343Z</time>
      </trkpt>
      <trkpt lat="42.2358" lon="8.9747">
        <ele>1569.5</ele>
        <time>2022-06-09T14:50:48.043Z</time>
      </trkpt>
      <trkpt lat="42.23567" lon="8.97476">
        <ele>1566.2</ele>
        <time>2022-06-09T14:51:04.761Z</time>
      </trkpt>
      <trkpt lat="42.23547" lon="8.9749">
        <ele>1561.1</ele>
        <time>2022-06-09T14:51:21.509Z</time>
      </trkpt>
      <trkpt lat="42.23533" lon="8.97504">
        <ele>1557.8</ele>
        <time>2022-06-09T14:51:38.280Z</time>
      </trkpt>
      <trkpt lat="42.23523" lon="8.97505">
        <ele>1555.9</ele>
        <time>2022-06-09T14:51:55.064Z</time>
      </trkpt>
      <trkpt lat="42.23514" lon="8.9751">
        <ele>1553.6</ele>
        <time>2022-06-09T14:52:11.862Z</time>
      </trkpt>
      <trkpt lat="42.235" lon="8.9753">
        <ele>1550</ele>
        <time>2022-06-09T14:52:28.688Z</time>
      </trkpt>
      <trkpt lat="42.23491" lon="8.97536">
        <ele>1549</ele>
        <time>2022-06-09T14:52:45.526Z</time>
      </trkpt>
      <trkpt lat="42.23452" lon="8.97552">
        <ele>1545.7</ele>
        <time>2022-06-09T14:53:02.418Z</time>
      </trkpt>
      <trkpt lat="42.23421" lon="8.97572">
        <ele>1543.6</ele>
        <time>2022-06-09T14:53:19.356Z</time>
      </trkpt>
      <trkpt lat="42.23391" lon="8.97584">
        <ele>1543.9</ele>
        <time>2022-06-09T14:53:36.336Z</time>
      </trkpt>
      <trkpt lat="42.23358" lon="8.97607">
        <ele>1543.2</ele>
        <time>2022-06-09T14:53:53.366Z</time>
      </trkpt>
      <trkpt lat="42.23343" lon="8.97612">
        <ele>1543</ele>
        <time>2022-06-09T14:54:10.416Z</time>
      </trkpt>
      <trkpt lat="42.23233" lon="8.97641">
        <ele>1543</ele>
        <time>2022-06-09T14:54:27.616Z</time>
      </trkpt>
      <trkpt lat="42.23136" lon="8.97719">
        <ele>1543.4</ele>
        <time>2022-06-09T14:54:44.967Z</time>
      </trkpt>
      <trkpt lat="42.23089" lon="8.97735">
        <ele>1544.8</ele>
        <time>2022-06-09T14:55:02.383Z</time>
      </trkpt>
      <trkpt lat="42.23071" lon="8.97749">
        <ele>1545.5</ele>
        <time>2022-06-09T14:55:19.827Z</time>
      </trkpt>
      <trkpt lat="42.23021" lon="8.97777">
        <ele>1545</ele>
        <time>2022-06-09T14:55:37.342Z</time>
      </trkpt>
      <trkpt lat="42.22935" lon="8.97768">
        <ele>1544.6</ele>
        <time>2022-06-09T14:55:54.972Z</time>
      </trkpt>
      <trkpt lat="42.22849" lon="8.97784">
        <ele>1545.7</ele>
        <time>2022-06-09T14:56:12.717Z</time>
      </trkpt>
      <trkpt lat="42.22811" lon="8.9778">
        <ele>1546</ele>
        <time>2022-06-09T14:56:30.514Z</time>
      </trkpt>
      <trkpt lat="42.22793" lon="8.97781">
        <ele>1546.5</ele>
        <time>2022-06-09T14:56:48.335Z</time>
      </trkpt>
      <trkpt lat="42.22774" lon="8.97788">
        <ele>1547.8</ele>
        <time>2022-06-09T14:57:06.181Z</time>
      </trkpt>
      <trkpt lat="42.22758" lon="8.97791">
        <ele>1549.9</ele>
        <time>2022-06-09T14:57:24.049Z</time>
      </trkpt>
      <trkpt lat="42.22743" lon="8.97799">
        <ele>1551.8</ele>
        <time>2022-06-09T14:57:41.938Z</time>
      </trkpt>
      <trkpt lat="42.22729" lon="8.97802">
        <ele>1553.4</ele>
        <time>2022-06-09T14:57:59.846Z</time>
      </trkpt>
      <trkpt lat="42.2272" lon="8.97807">
        <ele>1554.8</ele>
        <time>2022-06-09T14:58:17.768Z</time>
      </trkpt>
      <trkpt lat="42.2272" lon="8.97807">
        <ele>1554.8</ele>
        <time>2022-06-09T14:58:35.690Z</time>
      </trkpt>
      <trkpt lat="42.22716" lon="8.97809">
        <ele>1555.8</ele>
        <time>2022-06-09T14:58:53.617Z</time>
      </trkpt>
      <trkpt lat="42.2271" lon="8.97821">
        <ele>1557.7</ele>
        <time>2022-06-09T14:59:11.558Z</time>
      </trkpt>
      <trkpt lat="42.22681" lon="8.97833">
        <ele>1565.9</ele>
        <time>2022-06-09T14:59:29.540Z</time>
      </trkpt>
      <trkpt lat="42.22664" lon="8.97851">
        <ele>1568.4</ele>
        <time>2022-06-09T14:59:47.551Z</time>
      </trkpt>
      <trkpt lat="42.22648" lon="8.9785">
        <ele>1570.2</ele>
        <time>2022-06-09T15:00:05.583Z</time>
      </trkpt>
      <trkpt lat="42.22636" lon="8.97853">
        <ele>1570.9</ele>
        <time>2022-06-09T15:00:23.631Z</time>
      </trkpt>
      <trkpt lat="42.22615" lon="8.97857">
        <ele>1571.7</ele>
        <time>2022-06-09T15:00:41.708Z</time>
      </trkpt>
      <trkpt lat="42.22591" lon="8.97883">
        <ele>1576.2</ele>
        <time>2022-06-09T15:00:59.826Z</time>
      </trkpt>
      <trkpt lat="42.22562" lon="8.97905">
        <ele>1577.5</ele>
        <time>2022-06-09T15:01:17.988Z</time>
      </trkpt>
      <trkpt lat="42.22543" lon="8.97916">
        <ele>1578.3</ele>
        <time>2022-06-09T15:01:36.178Z</time>
      </trkpt>
      <trkpt lat="42.22528" lon="8.97915">
        <ele>1578.5</ele>
        <time>2022-06-09T15:01:54.388Z</time>
      </trkpt>
      <trkpt lat="42.22506" lon="8.97924">
        <ele>1581</ele>
        <time>2022-06-09T15:02:12.629Z</time>
      </trkpt>
      <trkpt lat="42.22466" lon="8.97948">
        <ele>1583.7</ele>
        <time>2022-06-09T15:02:30.927Z</time>
      </trkpt>
      <trkpt lat="42.2244" lon="8.97953">
        <ele>1583.6</ele>
        <time>2022-06-09T15:02:49.262Z</time>
      </trkpt>
      <trkpt lat="42.22424" lon="8.97961">
        <ele>1584</ele>
        <time>2022-06-09T15:03:07.619Z</time>
      </trkpt>
      <trkpt lat="42.22404" lon="8.97983">
        <ele>1588.5</ele>
        <time>2022-06-09T15:03:26.010Z</time>
      </trkpt>
      <trkpt lat="42.22384" lon="8.97971">
        <ele>1583.4</ele>
        <time>2022-06-09T15:03:44.431Z</time>
      </trkpt>
      <trkpt lat="42.22288" lon="8.9796">
        <ele>1577</ele>
        <time>2022-06-09T15:04:02.980Z</time>
      </trkpt>
      <trkpt lat="42.22264" lon="8.97968">
        <ele>1579.1</ele>
        <time>2022-06-09T15:04:21.563Z</time>
      </trkpt>
      <trkpt lat="42.22234" lon="8.97971">
        <ele>1577.9</ele>
        <time>2022-06-09T15:04:40.186Z</time>
      </trkpt>
      <trkpt lat="42.22151" lon="8.97996">
        <ele>1580.7</ele>
        <time>2022-06-09T15:04:58.922Z</time>
      </trkpt>
      <trkpt lat="42.22109" lon="8.98027">
        <ele>1583.6</ele>
        <time>2022-06-09T15:05:17.721Z</time>
      </trkpt>
      <trkpt lat="42.22086" lon="8.98033">
        <ele>1581.4</ele>
        <time>2022-06-09T15:05:36.552Z</time>
      </trkpt>
      <trkpt lat="42.22076" lon="8.98038">
        <ele>1582.1</ele>
        <time>2022-06-09T15:05:55.397Z</time>
      </trkpt>
      <trkpt lat="42.22058" lon="8.98057">
        <ele>1589.1</ele>
        <time>2022-06-09T15:06:14.273Z</time>
      </trkpt>
      <trkpt lat="42.22039" lon="8.98084">
        <ele>1595.8</ele>
        <time>2022-06-09T15:06:33.186Z</time>
      </trkpt>
      <trkpt lat="42.22039" lon="8.98083">
        <ele>1595.5</ele>
        <time>2022-06-09T15:06:52.100Z</time>
      </trkpt>
      <trkpt lat="42.2203" lon="8.98084">
        <ele>1596.1</ele>
        <time>2022-06-09T15:07:11.026Z</time>
      </trkpt>
      <trkpt lat="42.22027" lon="8.98082">
        <ele>1595.9</ele>
        <time>2022-06-09T15:07:29.956Z</time>
      </trkpt>
      <trkpt lat="42.22024" lon="8.98076">
        <ele>1595.8</ele>
        <time>2022-06-09T15:07:48.894Z</time>
      </trkpt>
      <trkpt lat="42.22022" lon="8.9807">
        <ele>1595.8</ele>
        <time>2022-06-09T15:08:07.838Z</time>
      </trkpt>
    </trkseg>
  </trk>
</gpx>